sensor_id;sensor_type;location;lat;lon;timestamp;P1;durP1;ratioP1;P2;durP2;ratioP2
14516;SDS011;7344;50.864;4.362;2023-12-28T00:00:29;3.77;;;3.10;;
14516;SDS011;7344;50.864;4.362;2023-12-28T00:02:55;3.37;;;3.07;;
14516;SDS011;7344;50.864;4.362;2023-12-28T00:05:21;3.30;;;3.10;;
14516;SDS011;7344;50.864;4.362;2023-12-28T00:07:46;5.30;;;3.20;;
14516;SDS011;7344;50.864;4.362;2023-12-28T00:10:12;2.90;;;2.70;;
14516;SDS011;7344;50.864;4.362;2023-12-28T00:12:37;3.73;;;3.30;;
14516;SDS011;7344;50.864;4.362;2023-12-28T00:15:03;3.50;;;3.20;;
14516;SDS011;7344;50.864;4.362;2023-12-28T00:17:29;3.17;;;2.97;;
14516;SDS011;7344;50.864;4.362;2023-12-28T00:19:55;4.30;;;3.10;;
14516;SDS011;7344;50.864;4.362;2023-12-28T00:22:21;4.50;;;3.40;;
14516;SDS011;7344;50.864;4.362;2023-12-28T00:24:46;3.23;;;3.00;;
14516;SDS011;7344;50.864;4.362;2023-12-28T00:27:12;3.30;;;3.00;;
14516;SDS011;7344;50.864;4.362;2023-12-28T00:29:37;4.17;;;3.20;;
14516;SDS011;7344;50.864;4.362;2023-12-28T00:32:05;4.00;;;2.77;;
14516;SDS011;7344;50.864;4.362;2023-12-28T00:34:30;4.50;;;3.00;;
14516;SDS011;7344;50.864;4.362;2023-12-28T00:36:56;4.00;;;2.97;;
14516;SDS011;7344;50.864;4.362;2023-12-28T00:39:22;5.47;;;3.43;;
14516;SDS011;7344;50.864;4.362;2023-12-28T00:41:47;4.50;;;2.93;;
14516;SDS011;7344;50.864;4.362;2023-12-28T00:44:13;3.03;;;2.80;;
14516;SDS011;7344;50.864;4.362;2023-12-28T00:46:38;3.43;;;3.07;;
14516;SDS011;7344;50.864;4.362;2023-12-28T00:49:04;6.20;;;3.17;;
14516;SDS011;7344;50.864;4.362;2023-12-28T00:51:30;4.07;;;3.00;;
14516;SDS011;7344;50.864;4.362;2023-12-28T00:53:55;3.80;;;3.40;;
14516;SDS011;7344;50.864;4.362;2023-12-28T00:56:21;4.00;;;3.33;;
14516;SDS011;7344;50.864;4.362;2023-12-28T00:58:46;3.87;;;3.00;;
14516;SDS011;7344;50.864;4.362;2023-12-28T01:01:12;5.20;;;2.90;;
14516;SDS011;7344;50.864;4.362;2023-12-28T01:03:38;3.30;;;3.00;;
14516;SDS011;7344;50.864;4.362;2023-12-28T01:06:06;4.70;;;3.27;;
14516;SDS011;7344;50.864;4.362;2023-12-28T01:08:32;4.80;;;2.97;;
14516;SDS011;7344;50.864;4.362;2023-12-28T01:11:01;5.30;;;3.20;;
14516;SDS011;7344;50.864;4.362;2023-12-28T01:13:27;3.40;;;3.10;;
14516;SDS011;7344;50.864;4.362;2023-12-28T01:15:54;7.03;;;3.10;;
14516;SDS011;7344;50.864;4.362;2023-12-28T01:18:19;4.00;;;3.30;;
14516;SDS011;7344;50.864;4.362;2023-12-28T01:20:45;5.00;;;3.30;;
14516;SDS011;7344;50.864;4.362;2023-12-28T01:23:11;3.50;;;3.20;;
14516;SDS011;7344;50.864;4.362;2023-12-28T01:25:36;4.77;;;3.20;;
14516;SDS011;7344;50.864;4.362;2023-12-28T01:28:02;4.87;;;3.20;;
14516;SDS011;7344;50.864;4.362;2023-12-28T01:30:28;4.93;;;3.37;;
14516;SDS011;7344;50.864;4.362;2023-12-28T01:32:53;4.97;;;3.40;;
14516;SDS011;7344;50.864;4.362;2023-12-28T01:35:19;4.77;;;3.40;;
14516;SDS011;7344;50.864;4.362;2023-12-28T01:37:45;4.60;;;3.13;;
14516;SDS011;7344;50.864;4.362;2023-12-28T01:40:10;4.53;;;2.87;;
14516;SDS011;7344;50.864;4.362;2023-12-28T01:42:37;3.90;;;3.00;;
14516;SDS011;7344;50.864;4.362;2023-12-28T01:45:03;3.77;;;3.47;;
14516;SDS011;7344;50.864;4.362;2023-12-28T01:47:28;3.67;;;3.23;;
14516;SDS011;7344;50.864;4.362;2023-12-28T01:49:55;3.70;;;2.93;;
14516;SDS011;7344;50.864;4.362;2023-12-28T01:52:21;4.27;;;2.83;;
14516;SDS011;7344;50.864;4.362;2023-12-28T01:54:47;3.67;;;2.83;;
14516;SDS011;7344;50.864;4.362;2023-12-28T01:57:14;3.43;;;3.13;;
14516;SDS011;7344;50.864;4.362;2023-12-28T01:59:40;5.43;;;2.70;;
14516;SDS011;7344;50.864;4.362;2023-12-28T02:02:06;3.13;;;2.83;;
14516;SDS011;7344;50.864;4.362;2023-12-28T02:04:32;3.20;;;2.90;;
14516;SDS011;7344;50.864;4.362;2023-12-28T02:06:59;3.10;;;2.70;;
14516;SDS011;7344;50.864;4.362;2023-12-28T02:09:25;5.00;;;2.60;;
14516;SDS011;7344;50.864;4.362;2023-12-28T02:11:51;3.97;;;2.60;;
14516;SDS011;7344;50.864;4.362;2023-12-28T02:14:18;4.63;;;2.80;;
14516;SDS011;7344;50.864;4.362;2023-12-28T02:16:46;3.50;;;2.53;;
14516;SDS011;7344;50.864;4.362;2023-12-28T02:19:19;4.83;;;2.93;;
14516;SDS011;7344;50.864;4.362;2023-12-28T02:21:48;5.53;;;3.10;;
14516;SDS011;7344;50.864;4.362;2023-12-28T02:24:15;3.17;;;2.47;;
14516;SDS011;7344;50.864;4.362;2023-12-28T02:26:40;4.47;;;2.60;;
14516;SDS011;7344;50.864;4.362;2023-12-28T02:29:06;2.60;;;2.40;;
14516;SDS011;7344;50.864;4.362;2023-12-28T02:31:35;2.87;;;2.50;;
14516;SDS011;7344;50.864;4.362;2023-12-28T02:34:15;4.53;;;2.40;;
14516;SDS011;7344;50.864;4.362;2023-12-28T02:36:47;4.13;;;2.87;;
14516;SDS011;7344;50.864;4.362;2023-12-28T02:39:14;4.43;;;2.53;;
14516;SDS011;7344;50.864;4.362;2023-12-28T02:41:42;3.37;;;2.90;;
14516;SDS011;7344;50.864;4.362;2023-12-28T02:44:09;5.80;;;2.67;;
14516;SDS011;7344;50.864;4.362;2023-12-28T02:46:35;4.90;;;2.73;;
14516;SDS011;7344;50.864;4.362;2023-12-28T02:49:01;5.33;;;2.63;;
14516;SDS011;7344;50.864;4.362;2023-12-28T02:51:26;5.73;;;3.00;;
14516;SDS011;7344;50.864;4.362;2023-12-28T02:53:52;3.33;;;2.70;;
14516;SDS011;7344;50.864;4.362;2023-12-28T02:56:17;5.10;;;2.80;;
14516;SDS011;7344;50.864;4.362;2023-12-28T02:58:43;8.73;;;2.70;;
14516;SDS011;7344;50.864;4.362;2023-12-28T03:01:09;6.83;;;2.93;;
14516;SDS011;7344;50.864;4.362;2023-12-28T03:03:34;5.77;;;2.67;;
14516;SDS011;7344;50.864;4.362;2023-12-28T03:06:00;5.37;;;2.70;;
14516;SDS011;7344;50.864;4.362;2023-12-28T03:08:25;4.07;;;2.67;;
14516;SDS011;7344;50.864;4.362;2023-12-28T03:10:51;3.97;;;2.90;;
14516;SDS011;7344;50.864;4.362;2023-12-28T03:13:17;4.30;;;2.43;;
14516;SDS011;7344;50.864;4.362;2023-12-28T03:15:43;4.13;;;2.40;;
14516;SDS011;7344;50.864;4.362;2023-12-28T03:18:09;4.80;;;2.60;;
14516;SDS011;7344;50.864;4.362;2023-12-28T03:20:34;6.27;;;2.70;;
14516;SDS011;7344;50.864;4.362;2023-12-28T03:23:00;5.20;;;2.30;;
14516;SDS011;7344;50.864;4.362;2023-12-28T03:25:25;3.80;;;2.37;;
14516;SDS011;7344;50.864;4.362;2023-12-28T03:27:51;5.23;;;2.30;;
14516;SDS011;7344;50.864;4.362;2023-12-28T03:30:16;3.90;;;2.17;;
14516;SDS011;7344;50.864;4.362;2023-12-28T03:32:42;6.10;;;2.97;;
14516;SDS011;7344;50.864;4.362;2023-12-28T03:35:07;8.60;;;2.37;;
14516;SDS011;7344;50.864;4.362;2023-12-28T03:37:33;6.53;;;2.77;;
14516;SDS011;7344;50.864;4.362;2023-12-28T03:39:59;7.00;;;2.53;;
14516;SDS011;7344;50.864;4.362;2023-12-28T03:42:24;3.57;;;2.53;;
14516;SDS011;7344;50.864;4.362;2023-12-28T03:44:50;8.17;;;2.80;;
14516;SDS011;7344;50.864;4.362;2023-12-28T03:47:16;5.83;;;2.60;;
14516;SDS011;7344;50.864;4.362;2023-12-28T03:49:41;6.33;;;2.47;;
14516;SDS011;7344;50.864;4.362;2023-12-28T03:52:07;6.47;;;2.50;;
14516;SDS011;7344;50.864;4.362;2023-12-28T03:54:32;4.97;;;2.30;;
14516;SDS011;7344;50.864;4.362;2023-12-28T03:56:58;9.37;;;2.57;;
14516;SDS011;7344;50.864;4.362;2023-12-28T03:59:23;7.83;;;2.53;;
14516;SDS011;7344;50.864;4.362;2023-12-28T04:01:49;4.60;;;2.37;;
14516;SDS011;7344;50.864;4.362;2023-12-28T04:04:14;7.13;;;2.70;;
14516;SDS011;7344;50.864;4.362;2023-12-28T04:06:40;6.47;;;2.40;;
14516;SDS011;7344;50.864;4.362;2023-12-28T04:09:08;4.73;;;2.40;;
14516;SDS011;7344;50.864;4.362;2023-12-28T04:11:33;5.17;;;2.43;;
14516;SDS011;7344;50.864;4.362;2023-12-28T04:13:59;7.27;;;2.30;;
14516;SDS011;7344;50.864;4.362;2023-12-28T04:16:24;7.93;;;2.80;;
14516;SDS011;7344;50.864;4.362;2023-12-28T04:18:50;6.03;;;2.27;;
14516;SDS011;7344;50.864;4.362;2023-12-28T04:21:15;4.77;;;2.00;;
14516;SDS011;7344;50.864;4.362;2023-12-28T04:23:41;12.43;;;2.73;;
14516;SDS011;7344;50.864;4.362;2023-12-28T04:26:07;4.80;;;2.33;;
14516;SDS011;7344;50.864;4.362;2023-12-28T04:28:33;5.93;;;2.53;;
14516;SDS011;7344;50.864;4.362;2023-12-28T04:31:03;5.67;;;2.47;;
14516;SDS011;7344;50.864;4.362;2023-12-28T04:33:30;7.50;;;2.37;;
14516;SDS011;7344;50.864;4.362;2023-12-28T04:35:56;7.00;;;2.50;;
14516;SDS011;7344;50.864;4.362;2023-12-28T04:38:21;7.60;;;2.30;;
14516;SDS011;7344;50.864;4.362;2023-12-28T04:40:47;5.83;;;2.37;;
14516;SDS011;7344;50.864;4.362;2023-12-28T04:43:12;5.87;;;2.70;;
14516;SDS011;7344;50.864;4.362;2023-12-28T04:45:38;8.43;;;2.60;;
14516;SDS011;7344;50.864;4.362;2023-12-28T04:48:04;4.40;;;2.27;;
14516;SDS011;7344;50.864;4.362;2023-12-28T04:50:30;10.53;;;2.53;;
14516;SDS011;7344;50.864;4.362;2023-12-28T04:52:55;5.57;;;2.70;;
14516;SDS011;7344;50.864;4.362;2023-12-28T04:55:21;7.37;;;2.83;;
14516;SDS011;7344;50.864;4.362;2023-12-28T04:57:46;7.83;;;2.70;;
14516;SDS011;7344;50.864;4.362;2023-12-28T05:00:12;6.13;;;2.50;;
14516;SDS011;7344;50.864;4.362;2023-12-28T05:02:37;6.03;;;2.30;;
14516;SDS011;7344;50.864;4.362;2023-12-28T05:05:03;8.70;;;2.60;;
14516;SDS011;7344;50.864;4.362;2023-12-28T05:07:29;7.27;;;2.50;;
14516;SDS011;7344;50.864;4.362;2023-12-28T05:09:54;11.77;;;2.90;;
14516;SDS011;7344;50.864;4.362;2023-12-28T05:12:20;7.47;;;2.63;;
14516;SDS011;7344;50.864;4.362;2023-12-28T05:14:45;9.17;;;2.60;;
14516;SDS011;7344;50.864;4.362;2023-12-28T05:17:11;11.20;;;2.50;;
14516;SDS011;7344;50.864;4.362;2023-12-28T05:19:36;9.03;;;2.57;;
14516;SDS011;7344;50.864;4.362;2023-12-28T05:22:02;7.23;;;2.47;;
14516;SDS011;7344;50.864;4.362;2023-12-28T05:24:31;12.00;;;2.53;;
14516;SDS011;7344;50.864;4.362;2023-12-28T05:26:57;14.97;;;2.73;;
14516;SDS011;7344;50.864;4.362;2023-12-28T05:29:23;11.77;;;2.60;;
14516;SDS011;7344;50.864;4.362;2023-12-28T05:31:48;7.10;;;3.03;;
14516;SDS011;7344;50.864;4.362;2023-12-28T05:34:14;12.97;;;3.00;;
14516;SDS011;7344;50.864;4.362;2023-12-28T05:36:40;9.97;;;2.90;;
14516;SDS011;7344;50.864;4.362;2023-12-28T05:39:06;9.47;;;2.90;;
14516;SDS011;7344;50.864;4.362;2023-12-28T05:41:34;9.50;;;2.80;;
14516;SDS011;7344;50.864;4.362;2023-12-28T05:44:00;9.53;;;2.13;;
14516;SDS011;7344;50.864;4.362;2023-12-28T05:46:25;9.20;;;2.87;;
14516;SDS011;7344;50.864;4.362;2023-12-28T05:48:51;8.53;;;2.33;;
14516;SDS011;7344;50.864;4.362;2023-12-28T05:51:16;13.00;;;2.53;;
14516;SDS011;7344;50.864;4.362;2023-12-28T05:53:43;8.20;;;2.43;;
14516;SDS011;7344;50.864;4.362;2023-12-28T05:56:09;12.90;;;2.87;;
14516;SDS011;7344;50.864;4.362;2023-12-28T05:58:34;8.50;;;2.27;;
14516;SDS011;7344;50.864;4.362;2023-12-28T06:01:01;10.10;;;2.50;;
14516;SDS011;7344;50.864;4.362;2023-12-28T06:03:29;10.77;;;2.30;;
14516;SDS011;7344;50.864;4.362;2023-12-28T06:05:55;8.47;;;2.67;;
14516;SDS011;7344;50.864;4.362;2023-12-28T06:08:20;11.73;;;2.77;;
14516;SDS011;7344;50.864;4.362;2023-12-28T06:10:46;13.67;;;3.03;;
14516;SDS011;7344;50.864;4.362;2023-12-28T06:13:11;8.80;;;2.50;;
14516;SDS011;7344;50.864;4.362;2023-12-28T06:15:37;13.43;;;2.77;;
14516;SDS011;7344;50.864;4.362;2023-12-28T06:18:03;11.87;;;2.90;;
14516;SDS011;7344;50.864;4.362;2023-12-28T06:20:29;4.53;;;2.30;;
14516;SDS011;7344;50.864;4.362;2023-12-28T06:22:55;8.10;;;2.43;;
14516;SDS011;7344;50.864;4.362;2023-12-28T06:25:20;8.93;;;2.67;;
14516;SDS011;7344;50.864;4.362;2023-12-28T06:27:46;9.00;;;2.23;;
14516;SDS011;7344;50.864;4.362;2023-12-28T06:30:11;9.03;;;2.50;;
14516;SDS011;7344;50.864;4.362;2023-12-28T06:32:37;10.50;;;2.50;;
14516;SDS011;7344;50.864;4.362;2023-12-28T06:35:03;11.20;;;2.70;;
14516;SDS011;7344;50.864;4.362;2023-12-28T06:37:29;9.40;;;2.23;;
14516;SDS011;7344;50.864;4.362;2023-12-28T06:39:55;9.27;;;3.00;;
14516;SDS011;7344;50.864;4.362;2023-12-28T06:42:20;10.20;;;2.43;;
14516;SDS011;7344;50.864;4.362;2023-12-28T06:44:46;10.23;;;2.60;;
14516;SDS011;7344;50.864;4.362;2023-12-28T06:47:11;12.57;;;2.53;;
14516;SDS011;7344;50.864;4.362;2023-12-28T06:49:37;9.67;;;2.53;;
14516;SDS011;7344;50.864;4.362;2023-12-28T06:52:02;11.20;;;2.60;;
14516;SDS011;7344;50.864;4.362;2023-12-28T06:54:28;10.63;;;2.63;;
14516;SDS011;7344;50.864;4.362;2023-12-28T06:56:54;10.20;;;2.70;;
14516;SDS011;7344;50.864;4.362;2023-12-28T06:59:19;10.23;;;2.93;;
14516;SDS011;7344;50.864;4.362;2023-12-28T07:01:45;14.47;;;2.60;;
14516;SDS011;7344;50.864;4.362;2023-12-28T07:04:10;7.47;;;2.60;;
14516;SDS011;7344;50.864;4.362;2023-12-28T07:06:37;8.40;;;2.43;;
14516;SDS011;7344;50.864;4.362;2023-12-28T07:09:02;15.47;;;3.40;;
14516;SDS011;7344;50.864;4.362;2023-12-28T07:11:29;10.07;;;2.67;;
14516;SDS011;7344;50.864;4.362;2023-12-28T07:13:55;11.33;;;2.67;;
14516;SDS011;7344;50.864;4.362;2023-12-28T07:16:20;10.43;;;2.57;;
14516;SDS011;7344;50.864;4.362;2023-12-28T07:18:46;10.13;;;2.93;;
14516;SDS011;7344;50.864;4.362;2023-12-28T07:21:11;12.80;;;2.80;;
14516;SDS011;7344;50.864;4.362;2023-12-28T07:23:37;14.40;;;2.67;;
14516;SDS011;7344;50.864;4.362;2023-12-28T07:26:03;8.77;;;2.50;;
14516;SDS011;7344;50.864;4.362;2023-12-28T07:28:29;13.53;;;3.27;;
14516;SDS011;7344;50.864;4.362;2023-12-28T07:30:55;14.10;;;2.70;;
14516;SDS011;7344;50.864;4.362;2023-12-28T07:33:20;10.03;;;2.67;;
14516;SDS011;7344;50.864;4.362;2023-12-28T07:35:46;10.43;;;3.00;;
14516;SDS011;7344;50.864;4.362;2023-12-28T07:38:12;11.67;;;3.37;;
14516;SDS011;7344;50.864;4.362;2023-12-28T07:40:37;11.07;;;2.70;;
14516;SDS011;7344;50.864;4.362;2023-12-28T07:43:03;12.43;;;2.57;;
14516;SDS011;7344;50.864;4.362;2023-12-28T07:45:29;12.93;;;3.07;;
14516;SDS011;7344;50.864;4.362;2023-12-28T07:47:54;12.10;;;2.97;;
14516;SDS011;7344;50.864;4.362;2023-12-28T07:50:20;20.20;;;3.47;;
14516;SDS011;7344;50.864;4.362;2023-12-28T07:52:46;9.57;;;2.73;;
14516;SDS011;7344;50.864;4.362;2023-12-28T07:55:13;10.43;;;2.90;;
14516;SDS011;7344;50.864;4.362;2023-12-28T07:57:39;10.77;;;3.33;;
14516;SDS011;7344;50.864;4.362;2023-12-28T08:00:05;7.33;;;2.33;;
14516;SDS011;7344;50.864;4.362;2023-12-28T08:02:31;16.57;;;3.40;;
14516;SDS011;7344;50.864;4.362;2023-12-28T08:04:56;12.17;;;2.57;;
14516;SDS011;7344;50.864;4.362;2023-12-28T08:07:22;16.97;;;2.93;;
14516;SDS011;7344;50.864;4.362;2023-12-28T08:09:48;14.53;;;3.30;;
14516;SDS011;7344;50.864;4.362;2023-12-28T08:12:13;10.90;;;2.97;;
14516;SDS011;7344;50.864;4.362;2023-12-28T08:14:39;13.63;;;3.07;;
14516;SDS011;7344;50.864;4.362;2023-12-28T08:17:04;11.37;;;2.70;;
14516;SDS011;7344;50.864;4.362;2023-12-28T08:19:30;13.77;;;3.10;;
14516;SDS011;7344;50.864;4.362;2023-12-28T08:21:55;15.67;;;3.40;;
14516;SDS011;7344;50.864;4.362;2023-12-28T08:24:21;11.43;;;3.27;;
14516;SDS011;7344;50.864;4.362;2023-12-28T08:26:46;13.60;;;2.60;;
14516;SDS011;7344;50.864;4.362;2023-12-28T08:29:12;15.93;;;2.87;;
14516;SDS011;7344;50.864;4.362;2023-12-28T08:31:38;9.70;;;2.63;;
14516;SDS011;7344;50.864;4.362;2023-12-28T08:34:03;13.13;;;2.70;;
14516;SDS011;7344;50.864;4.362;2023-12-28T08:36:29;12.67;;;2.37;;
14516;SDS011;7344;50.864;4.362;2023-12-28T08:38:55;8.73;;;2.83;;
14516;SDS011;7344;50.864;4.362;2023-12-28T08:41:20;12.90;;;2.80;;
14516;SDS011;7344;50.864;4.362;2023-12-28T08:43:48;8.77;;;2.70;;
14516;SDS011;7344;50.864;4.362;2023-12-28T08:46:15;12.17;;;3.03;;
14516;SDS011;7344;50.864;4.362;2023-12-28T08:48:41;13.47;;;3.13;;
14516;SDS011;7344;50.864;4.362;2023-12-28T08:51:09;12.27;;;3.13;;
14516;SDS011;7344;50.864;4.362;2023-12-28T08:53:36;7.37;;;2.73;;
14516;SDS011;7344;50.864;4.362;2023-12-28T08:56:01;14.47;;;2.70;;
14516;SDS011;7344;50.864;4.362;2023-12-28T08:58:27;9.93;;;2.67;;
14516;SDS011;7344;50.864;4.362;2023-12-28T09:00:52;13.67;;;3.17;;
14516;SDS011;7344;50.864;4.362;2023-12-28T09:03:18;14.50;;;3.63;;
14516;SDS011;7344;50.864;4.362;2023-12-28T09:05:44;10.97;;;3.07;;
14516;SDS011;7344;50.864;4.362;2023-12-28T09:08:09;11.67;;;3.13;;
14516;SDS011;7344;50.864;4.362;2023-12-28T09:10:35;11.90;;;3.27;;
14516;SDS011;7344;50.864;4.362;2023-12-28T09:13:00;11.37;;;2.60;;
14516;SDS011;7344;50.864;4.362;2023-12-28T09:15:29;9.47;;;2.90;;
14516;SDS011;7344;50.864;4.362;2023-12-28T09:17:55;9.47;;;2.50;;
14516;SDS011;7344;50.864;4.362;2023-12-28T09:20:21;11.67;;;2.80;;
14516;SDS011;7344;50.864;4.362;2023-12-28T09:22:47;14.67;;;3.07;;
14516;SDS011;7344;50.864;4.362;2023-12-28T09:25:15;14.63;;;3.27;;
14516;SDS011;7344;50.864;4.362;2023-12-28T09:27:41;20.63;;;3.43;;
14516;SDS011;7344;50.864;4.362;2023-12-28T09:30:07;15.07;;;3.43;;
14516;SDS011;7344;50.864;4.362;2023-12-28T09:32:33;9.90;;;2.50;;
14516;SDS011;7344;50.864;4.362;2023-12-28T09:34:58;8.90;;;2.67;;
14516;SDS011;7344;50.864;4.362;2023-12-28T09:37:24;8.37;;;3.07;;
14516;SDS011;7344;50.864;4.362;2023-12-28T09:39:49;12.63;;;2.93;;
14516;SDS011;7344;50.864;4.362;2023-12-28T09:42:23;11.50;;;3.50;;
14516;SDS011;7344;50.864;4.362;2023-12-28T09:44:54;11.03;;;3.17;;
14516;SDS011;7344;50.864;4.362;2023-12-28T09:47:19;15.60;;;3.10;;
14516;SDS011;7344;50.864;4.362;2023-12-28T09:49:45;11.67;;;3.10;;
14516;SDS011;7344;50.864;4.362;2023-12-28T09:52:12;10.60;;;2.40;;
14516;SDS011;7344;50.864;4.362;2023-12-28T09:54:38;9.70;;;3.17;;
14516;SDS011;7344;50.864;4.362;2023-12-28T09:57:03;11.03;;;3.33;;
14516;SDS011;7344;50.864;4.362;2023-12-28T09:59:30;13.30;;;3.30;;
14516;SDS011;7344;50.864;4.362;2023-12-28T10:01:57;18.47;;;3.83;;
14516;SDS011;7344;50.864;4.362;2023-12-28T10:04:25;13.03;;;3.20;;
14516;SDS011;7344;50.864;4.362;2023-12-28T10:06:54;13.10;;;3.00;;
14516;SDS011;7344;50.864;4.362;2023-12-28T10:09:20;14.20;;;3.40;;
14516;SDS011;7344;50.864;4.362;2023-12-28T10:11:46;10.50;;;3.40;;
14516;SDS011;7344;50.864;4.362;2023-12-28T10:14:12;13.57;;;3.00;;
14516;SDS011;7344;50.864;4.362;2023-12-28T10:16:41;11.47;;;2.63;;
14516;SDS011;7344;50.864;4.362;2023-12-28T10:19:07;8.97;;;2.70;;
14516;SDS011;7344;50.864;4.362;2023-12-28T10:21:33;12.30;;;2.73;;
14516;SDS011;7344;50.864;4.362;2023-12-28T10:23:59;12.90;;;3.60;;
14516;SDS011;7344;50.864;4.362;2023-12-28T10:26:24;17.07;;;3.50;;
14516;SDS011;7344;50.864;4.362;2023-12-28T10:28:50;10.13;;;2.80;;
14516;SDS011;7344;50.864;4.362;2023-12-28T10:31:24;14.87;;;3.33;;
14516;SDS011;7344;50.864;4.362;2023-12-28T10:33:49;9.77;;;2.80;;
14516;SDS011;7344;50.864;4.362;2023-12-28T10:36:15;14.20;;;3.10;;
14516;SDS011;7344;50.864;4.362;2023-12-28T10:38:41;14.30;;;3.47;;
14516;SDS011;7344;50.864;4.362;2023-12-28T10:41:10;15.23;;;3.40;;
14516;SDS011;7344;50.864;4.362;2023-12-28T10:46:26;13.13;;;2.87;;
14516;SDS011;7344;50.864;4.362;2023-12-28T10:48:52;16.27;;;3.33;;
14516;SDS011;7344;50.864;4.362;2023-12-28T10:51:23;16.60;;;3.17;;
14516;SDS011;7344;50.864;4.362;2023-12-28T10:54:01;13.07;;;2.90;;
14516;SDS011;7344;50.864;4.362;2023-12-28T10:56:46;15.40;;;3.40;;
14516;SDS011;7344;50.864;4.362;2023-12-28T11:01:47;13.20;;;2.70;;
14516;SDS011;7344;50.864;4.362;2023-12-28T11:04:38;16.27;;;3.23;;
14516;SDS011;7344;50.864;4.362;2023-12-28T11:07:06;11.70;;;2.97;;
14516;SDS011;7344;50.864;4.362;2023-12-28T11:09:34;12.60;;;3.33;;
14516;SDS011;7344;50.864;4.362;2023-12-28T11:12:02;12.30;;;3.27;;
14516;SDS011;7344;50.864;4.362;2023-12-28T11:14:31;13.47;;;3.27;;
14516;SDS011;7344;50.864;4.362;2023-12-28T11:16:59;15.53;;;3.67;;
14516;SDS011;7344;50.864;4.362;2023-12-28T11:19:28;15.17;;;3.77;;
14516;SDS011;7344;50.864;4.362;2023-12-28T11:21:55;10.20;;;3.30;;
14516;SDS011;7344;50.864;4.362;2023-12-28T11:24:22;14.37;;;3.40;;
14516;SDS011;7344;50.864;4.362;2023-12-28T11:26:52;14.13;;;3.43;;
14516;SDS011;7344;50.864;4.362;2023-12-28T11:29:19;15.70;;;3.37;;
14516;SDS011;7344;50.864;4.362;2023-12-28T11:31:50;11.73;;;3.07;;
14516;SDS011;7344;50.864;4.362;2023-12-28T11:34:19;15.93;;;3.53;;
14516;SDS011;7344;50.864;4.362;2023-12-28T11:36:54;12.57;;;3.33;;
14516;SDS011;7344;50.864;4.362;2023-12-28T11:39:31;12.60;;;3.63;;
14516;SDS011;7344;50.864;4.362;2023-12-28T11:42:01;10.87;;;3.40;;
14516;SDS011;7344;50.864;4.362;2023-12-28T11:44:31;13.83;;;3.37;;
14516;SDS011;7344;50.864;4.362;2023-12-28T11:47:16;16.37;;;3.10;;
14516;SDS011;7344;50.864;4.362;2023-12-28T11:49:46;14.37;;;3.37;;
14516;SDS011;7344;50.864;4.362;2023-12-28T11:52:26;13.43;;;3.20;;
14516;SDS011;7344;50.864;4.362;2023-12-28T11:54:54;11.70;;;3.33;;
14516;SDS011;7344;50.864;4.362;2023-12-28T11:57:20;11.57;;;3.17;;
14516;SDS011;7344;50.864;4.362;2023-12-28T11:59:47;13.30;;;3.27;;
14516;SDS011;7344;50.864;4.362;2023-12-28T12:02:17;11.93;;;3.30;;
14516;SDS011;7344;50.864;4.362;2023-12-28T12:04:44;14.30;;;3.23;;
14516;SDS011;7344;50.864;4.362;2023-12-28T12:07:09;16.27;;;3.60;;
14516;SDS011;7344;50.864;4.362;2023-12-28T12:09:35;15.67;;;4.17;;
14516;SDS011;7344;50.864;4.362;2023-12-28T12:12:01;14.30;;;3.30;;
14516;SDS011;7344;50.864;4.362;2023-12-28T12:14:27;16.83;;;3.50;;
14516;SDS011;7344;50.864;4.362;2023-12-28T12:16:54;15.33;;;3.47;;
14516;SDS011;7344;50.864;4.362;2023-12-28T12:19:22;12.53;;;2.93;;
14516;SDS011;7344;50.864;4.362;2023-12-28T12:21:48;11.13;;;3.67;;
14516;SDS011;7344;50.864;4.362;2023-12-28T12:24:14;12.90;;;3.13;;
14516;SDS011;7344;50.864;4.362;2023-12-28T12:26:42;16.37;;;3.43;;
14516;SDS011;7344;50.864;4.362;2023-12-28T12:29:08;12.20;;;3.70;;
14516;SDS011;7344;50.864;4.362;2023-12-28T12:31:33;11.90;;;3.20;;
14516;SDS011;7344;50.864;4.362;2023-12-28T12:33:59;14.37;;;3.37;;
14516;SDS011;7344;50.864;4.362;2023-12-28T12:36:25;12.77;;;3.63;;
14516;SDS011;7344;50.864;4.362;2023-12-28T12:38:50;11.97;;;3.10;;
14516;SDS011;7344;50.864;4.362;2023-12-28T12:41:16;12.73;;;3.50;;
14516;SDS011;7344;50.864;4.362;2023-12-28T12:43:42;11.30;;;3.37;;
14516;SDS011;7344;50.864;4.362;2023-12-28T12:46:07;17.20;;;3.67;;
14516;SDS011;7344;50.864;4.362;2023-12-28T12:48:33;13.07;;;3.20;;
14516;SDS011;7344;50.864;4.362;2023-12-28T12:51:01;13.60;;;3.37;;
14516;SDS011;7344;50.864;4.362;2023-12-28T12:53:37;13.70;;;3.20;;
14516;SDS011;7344;50.864;4.362;2023-12-28T12:56:04;12.30;;;3.00;;
14516;SDS011;7344;50.864;4.362;2023-12-28T12:58:30;11.27;;;2.93;;
14516;SDS011;7344;50.864;4.362;2023-12-28T13:00:56;11.07;;;3.03;;
14516;SDS011;7344;50.864;4.362;2023-12-28T13:03:22;13.37;;;3.30;;
14516;SDS011;7344;50.864;4.362;2023-12-28T13:05:53;12.43;;;3.03;;
14516;SDS011;7344;50.864;4.362;2023-12-28T13:08:21;12.93;;;3.07;;
14516;SDS011;7344;50.864;4.362;2023-12-28T13:10:46;18.20;;;3.77;;
14516;SDS011;7344;50.864;4.362;2023-12-28T13:13:12;13.43;;;3.00;;
14516;SDS011;7344;50.864;4.362;2023-12-28T13:15:38;12.57;;;3.37;;
14516;SDS011;7344;50.864;4.362;2023-12-28T13:18:04;12.33;;;3.40;;
14516;SDS011;7344;50.864;4.362;2023-12-28T13:20:30;10.40;;;3.57;;
14516;SDS011;7344;50.864;4.362;2023-12-28T13:22:55;13.07;;;2.80;;
14516;SDS011;7344;50.864;4.362;2023-12-28T13:25:22;15.53;;;3.67;;
14516;SDS011;7344;50.864;4.362;2023-12-28T13:27:47;9.30;;;2.93;;
14516;SDS011;7344;50.864;4.362;2023-12-28T13:30:14;14.73;;;3.03;;
14516;SDS011;7344;50.864;4.362;2023-12-28T13:32:40;12.00;;;3.40;;
14516;SDS011;7344;50.864;4.362;2023-12-28T13:35:05;14.33;;;3.50;;
14516;SDS011;7344;50.864;4.362;2023-12-28T13:37:31;10.57;;;3.27;;
14516;SDS011;7344;50.864;4.362;2023-12-28T13:39:57;9.47;;;3.10;;
14516;SDS011;7344;50.864;4.362;2023-12-28T13:42:22;11.03;;;3.03;;
14516;SDS011;7344;50.864;4.362;2023-12-28T13:44:48;12.93;;;3.10;;
14516;SDS011;7344;50.864;4.362;2023-12-28T13:47:13;14.20;;;3.10;;
14516;SDS011;7344;50.864;4.362;2023-12-28T13:49:39;17.47;;;3.70;;
14516;SDS011;7344;50.864;4.362;2023-12-28T13:52:05;14.33;;;3.00;;
14516;SDS011;7344;50.864;4.362;2023-12-28T13:54:30;13.57;;;3.47;;
14516;SDS011;7344;50.864;4.362;2023-12-28T13:56:56;12.27;;;3.13;;
14516;SDS011;7344;50.864;4.362;2023-12-28T13:59:22;12.40;;;3.03;;
14516;SDS011;7344;50.864;4.362;2023-12-28T14:01:48;12.87;;;3.50;;
14516;SDS011;7344;50.864;4.362;2023-12-28T14:04:14;13.77;;;3.90;;
14516;SDS011;7344;50.864;4.362;2023-12-28T14:06:39;13.40;;;3.57;;
14516;SDS011;7344;50.864;4.362;2023-12-28T14:09:05;16.17;;;3.40;;
14516;SDS011;7344;50.864;4.362;2023-12-28T14:11:31;10.73;;;3.37;;
14516;SDS011;7344;50.864;4.362;2023-12-28T14:13:56;9.53;;;3.83;;
14516;SDS011;7344;50.864;4.362;2023-12-28T14:16:22;11.23;;;2.83;;
14516;SDS011;7344;50.864;4.362;2023-12-28T14:18:48;10.83;;;3.43;;
14516;SDS011;7344;50.864;4.362;2023-12-28T14:21:14;10.60;;;3.00;;
14516;SDS011;7344;50.864;4.362;2023-12-28T14:23:40;11.97;;;2.97;;
14516;SDS011;7344;50.864;4.362;2023-12-28T14:26:13;11.67;;;3.10;;
14516;SDS011;7344;50.864;4.362;2023-12-28T14:28:42;8.87;;;2.90;;
14516;SDS011;7344;50.864;4.362;2023-12-28T14:31:09;8.30;;;2.90;;
14516;SDS011;7344;50.864;4.362;2023-12-28T14:33:35;15.20;;;3.10;;
14516;SDS011;7344;50.864;4.362;2023-12-28T14:36:02;10.53;;;3.07;;
14516;SDS011;7344;50.864;4.362;2023-12-28T14:38:30;12.73;;;3.20;;
14516;SDS011;7344;50.864;4.362;2023-12-28T14:40:56;12.43;;;2.80;;
14516;SDS011;7344;50.864;4.362;2023-12-28T14:43:22;19.27;;;3.27;;
14516;SDS011;7344;50.864;4.362;2023-12-28T14:45:47;13.33;;;3.13;;
14516;SDS011;7344;50.864;4.362;2023-12-28T14:48:13;14.40;;;3.63;;
14516;SDS011;7344;50.864;4.362;2023-12-28T14:50:39;16.87;;;3.10;;
14516;SDS011;7344;50.864;4.362;2023-12-28T14:53:04;9.80;;;2.90;;
14516;SDS011;7344;50.864;4.362;2023-12-28T14:55:30;8.83;;;2.97;;